createdAt,value
2018-12-25T00:00:32.282Z,1.80
2018-12-25T00:03:01.133Z,1.80
2018-12-25T00:05:29.901Z,1.80
2018-12-25T00:07:59.307Z,1.70
2018-12-25T00:10:28.880Z,1.70
2018-12-25T00:12:58.119Z,1.70
2018-12-25T00:15:26.897Z,1.60
2018-12-25T00:17:55.728Z,1.60
2018-12-25T00:20:24.508Z,1.50
2018-12-25T00:22:53.301Z,1.60
2018-12-25T00:25:22.067Z,1.60
2018-12-25T00:27:50.860Z,1.50
2018-12-25T00:30:19.648Z,1.60
2018-12-25T00:32:48.540Z,1.70
2018-12-25T00:35:17.340Z,1.70
2018-12-25T00:37:46.221Z,1.60
2018-12-25T00:40:15.005Z,1.60
2018-12-25T00:42:43.846Z,1.70
2018-12-25T00:45:12.744Z,1.60
2018-12-25T00:47:41.861Z,1.60
2018-12-25T00:50:10.722Z,1.60
2018-12-25T00:52:39.498Z,1.50
2018-12-25T00:55:08.320Z,1.40
2018-12-25T00:57:37.456Z,1.40
2018-12-25T01:00:06.592Z,1.30
2018-12-25T01:02:35.427Z,1.30
2018-12-25T01:05:04.376Z,1.10
2018-12-25T01:07:33.508Z,1.10
2018-12-25T01:10:02.408Z,1.10
2018-12-25T01:12:31.197Z,1.00
2018-12-25T01:15:00.002Z,1.00
2018-12-25T01:17:29.054Z,1.00
2018-12-25T01:19:57.880Z,1.00
2018-12-25T01:22:26.672Z,1.00
2018-12-25T01:24:55.551Z,1.00
2018-12-25T01:27:24.380Z,0.90
2018-12-25T01:29:53.182Z,0.90
2018-12-25T01:32:21.973Z,0.80
2018-12-25T01:34:50.764Z,0.90
2018-12-25T01:37:19.596Z,0.90
2018-12-25T01:39:48.385Z,0.80
2018-12-25T01:42:17.171Z,0.80
2018-12-25T01:44:46.020Z,0.90
2018-12-25T01:47:14.809Z,0.80
2018-12-25T01:49:43.597Z,0.70
2018-12-25T01:52:12.386Z,0.70
2018-12-25T01:54:41.197Z,0.60
2018-12-25T01:57:10.071Z,0.50
2018-12-25T01:59:38.916Z,0.50
2018-12-25T02:02:07.704Z,0.60
2018-12-25T02:04:36.503Z,0.60
2018-12-25T02:07:08.396Z,0.60
2018-12-25T02:09:37.187Z,0.60
2018-12-25T02:12:06.061Z,0.50
2018-12-25T02:14:34.900Z,0.50
2018-12-25T02:17:03.657Z,0.50
2018-12-25T02:19:40.068Z,0.50
2018-12-25T02:22:03.026Z,0.50
2018-12-25T02:24:31.914Z,0.50
2018-12-25T02:27:00.724Z,0.50
2018-12-25T02:29:29.497Z,0.50
2018-12-25T02:31:58.405Z,0.50
2018-12-25T02:34:27.181Z,0.60
2018-12-25T02:36:56.080Z,0.60
2018-12-25T02:39:25.755Z,0.60
2018-12-25T02:41:54.556Z,0.70
2018-12-25T02:44:23.399Z,0.60
2018-12-25T02:46:52.245Z,0.50
2018-12-25T02:49:21.405Z,0.40
2018-12-25T02:51:50.703Z,0.50
2018-12-25T02:54:20.210Z,0.50
2018-12-25T02:56:48.998Z,0.50
2018-12-25T02:59:17.805Z,0.60
2018-12-25T03:01:46.593Z,0.40
2018-12-25T03:04:15.375Z,0.30
2018-12-25T03:06:44.169Z,0.20
2018-12-25T03:09:13.245Z,0.10
2018-12-25T03:11:42.375Z,0.00
2018-12-25T03:14:11.227Z,0.00
2018-12-25T03:16:40.042Z,0.00
2018-12-25T03:19:09.208Z,0.00
2018-12-25T03:21:38.016Z,0.00
2018-12-25T03:24:06.796Z,0.00
2018-12-25T03:26:35.658Z,0.00
2018-12-25T03:29:04.553Z,0.00
2018-12-25T03:31:33.602Z,-0.20
2018-12-25T03:34:02.693Z,-0.20
2018-12-25T03:36:31.509Z,-0.40
2018-12-25T03:39:00.301Z,-0.40
2018-12-25T03:41:29.089Z,-0.40
2018-12-25T03:43:57.901Z,-0.40
2018-12-25T03:46:26.670Z,-0.40
2018-12-25T03:48:55.804Z,-0.50
2018-12-25T03:51:24.617Z,-0.40
2018-12-25T03:53:53.398Z,-0.40
2018-12-25T03:56:22.305Z,-0.30
2018-12-25T03:58:51.800Z,-0.30
2018-12-25T04:01:20.679Z,-0.30
2018-12-25T04:03:49.549Z,-0.30
2018-12-25T04:06:18.351Z,-0.30
2018-12-25T04:09:07.100Z,-0.30
2018-12-25T04:11:35.877Z,-0.30
2018-12-25T04:14:04.902Z,-0.30
2018-12-25T04:16:33.909Z,-0.30
2018-12-25T04:19:21.974Z,-0.30
2018-12-25T04:22:10.062Z,-0.30
2018-12-25T04:24:58.406Z,-0.40
2018-12-25T04:27:46.436Z,-0.40
2018-12-25T04:30:34.444Z,-0.40
2018-12-25T04:33:22.489Z,-0.40
2018-12-25T04:36:03.127Z,-0.40
2018-12-25T04:38:44.212Z,-0.40
2018-12-25T04:41:24.929Z,-0.40
2018-12-25T04:44:05.775Z,-0.40
2018-12-25T04:46:46.253Z,-0.30
2018-12-25T04:49:27.145Z,-0.30
2018-12-25T04:52:07.874Z,-0.30
2018-12-25T04:54:48.696Z,-0.40
2018-12-25T04:57:29.422Z,-0.40
2018-12-25T05:00:10.195Z,-0.40
2018-12-25T05:02:51.274Z,-0.40
2018-12-25T05:05:32.370Z,-0.40
2018-12-25T05:08:13.282Z,-0.40
2018-12-25T05:10:53.866Z,-0.40
2018-12-25T05:13:35.112Z,-0.60
2018-12-25T05:16:15.835Z,-0.80
2018-12-25T05:18:56.580Z,-0.80
2018-12-25T05:21:25.380Z,-0.80
2018-12-25T05:23:54.445Z,-0.80
2018-12-25T05:26:23.292Z,-0.70
2018-12-25T05:28:52.172Z,-0.70
2018-12-25T05:31:40.564Z,-0.60
2018-12-25T05:34:28.665Z,-0.70
2018-12-25T05:37:09.692Z,-0.60
2018-12-25T05:39:50.412Z,-0.60
2018-12-25T05:42:31.730Z,-0.60
2018-12-25T05:45:12.272Z,-0.60
2018-12-25T05:47:53.143Z,-0.60
2018-12-25T05:50:33.914Z,-0.60
2018-12-25T05:53:14.641Z,-0.60
2018-12-25T05:55:55.286Z,-0.70
2018-12-25T05:58:38.038Z,-0.60
2018-12-25T06:01:19.379Z,-0.70
2018-12-25T06:04:00.461Z,-0.70
2018-12-25T06:06:41.350Z,-0.70
2018-12-25T06:09:22.152Z,-0.70
2018-12-25T06:12:02.837Z,-0.70
2018-12-25T06:14:43.720Z,-0.70
2018-12-25T06:17:24.338Z,-0.60
2018-12-25T06:20:04.860Z,-0.60
2018-12-25T06:22:45.552Z,-0.60
2018-12-25T06:25:26.626Z,-0.60
2018-12-25T06:28:07.578Z,-0.50
2018-12-25T06:30:48.417Z,-0.60
2018-12-25T06:33:29.193Z,-0.60
2018-12-25T06:36:09.896Z,-0.60
2018-12-25T06:38:50.785Z,-0.60
2018-12-25T06:41:31.542Z,-0.60
2018-12-25T06:44:12.396Z,-0.60
2018-12-25T06:46:52.882Z,-0.60
2018-12-25T06:49:33.630Z,-0.60
2018-12-25T06:52:14.300Z,-0.70
2018-12-25T06:54:54.776Z,-0.80
2018-12-25T06:57:35.574Z,-0.80
2018-12-25T07:00:04.764Z,-0.70
2018-12-25T07:02:52.780Z,-0.60
2018-12-25T07:05:40.820Z,-0.60
2018-12-25T07:08:09.628Z,-0.50
2018-12-25T07:10:57.656Z,-0.40
2018-12-25T07:13:26.460Z,-0.40
2018-12-25T07:16:14.497Z,-0.30
2018-12-25T07:18:43.679Z,-0.30
2018-12-25T07:21:31.726Z,-0.20
2018-12-25T07:24:19.768Z,-0.40
2018-12-25T07:27:07.822Z,-0.10
2018-12-25T07:29:55.842Z,-0.20
2018-12-25T07:32:44.179Z,-0.20
2018-12-25T07:35:32.234Z,-0.20
2018-12-25T07:38:01.046Z,-0.10
2018-12-25T07:40:29.889Z,0.00
2018-12-25T07:42:58.685Z,0.00
2018-12-25T07:45:27.496Z,0.10
2018-12-25T07:47:56.320Z,0.10
2018-12-25T07:50:25.132Z,0.00
2018-12-25T07:52:53.936Z,0.00
2018-12-25T07:55:22.773Z,0.00
2018-12-25T07:57:51.599Z,0.00
2018-12-25T08:00:20.443Z,0.00
2018-12-25T08:02:49.257Z,0.10
2018-12-25T08:05:18.530Z,0.00
2018-12-25T08:07:47.604Z,0.00
2018-12-25T08:10:16.422Z,0.00
2018-12-25T08:12:45.363Z,0.00
2018-12-25T08:15:14.273Z,0.00
2018-12-25T08:17:43.083Z,0.00
2018-12-25T08:20:11.945Z,0.00
2018-12-25T08:22:41.024Z,0.10
2018-12-25T08:25:09.871Z,0.10
2018-12-25T08:27:38.668Z,0.10
2018-12-25T08:30:07.609Z,0.10
2018-12-25T08:32:36.453Z,0.20
2018-12-25T08:35:05.517Z,0.20
2018-12-25T08:37:34.437Z,0.20
2018-12-25T08:40:03.255Z,0.20
2018-12-25T08:42:32.095Z,0.30
2018-12-25T08:45:00.904Z,0.20
2018-12-25T08:47:29.731Z,0.30
2018-12-25T08:49:58.882Z,0.30
2018-12-25T08:52:27.784Z,0.20
2018-12-25T08:54:56.610Z,0.20
2018-12-25T08:57:25.448Z,0.30
2018-12-25T08:59:54.248Z,0.40
2018-12-25T09:02:23.405Z,0.40
2018-12-25T09:04:52.201Z,0.40
2018-12-25T09:07:21.571Z,0.50
2018-12-25T09:09:50.477Z,0.50
2018-12-25T09:12:19.606Z,0.50
2018-12-25T09:14:48.453Z,0.50
2018-12-25T09:17:17.529Z,0.50
2018-12-25T09:19:46.357Z,0.50
2018-12-25T09:22:15.145Z,0.40
2018-12-25T09:24:43.970Z,0.40
2018-12-25T09:27:12.740Z,0.40
2018-12-25T09:29:41.544Z,0.40
2018-12-25T09:32:10.315Z,0.20
2018-12-25T09:34:39.092Z,0.20
2018-12-25T09:37:07.891Z,0.20
2018-12-25T09:39:37.124Z,0.20
2018-12-25T09:42:05.983Z,0.20
2018-12-25T09:44:34.788Z,0.30
2018-12-25T09:47:03.661Z,0.30
2018-12-25T09:49:32.464Z,0.30
2018-12-25T09:52:02.868Z,0.20
2018-12-25T09:54:31.663Z,0.30
2018-12-25T09:57:00.440Z,0.30
2018-12-25T09:59:30.225Z,0.30
2018-12-25T10:01:59.021Z,0.30
2018-12-25T10:04:27.808Z,0.40
2018-12-25T10:06:56.693Z,0.40
2018-12-25T10:09:25.489Z,0.40
2018-12-25T10:11:54.486Z,0.50
2018-12-25T10:14:24.333Z,0.60
2018-12-25T10:16:53.273Z,0.60
2018-12-25T10:19:22.151Z,0.60
2018-12-25T10:21:51.284Z,0.60
2018-12-25T10:24:21.251Z,0.60
2018-12-25T10:26:50.444Z,0.70
2018-12-25T10:29:19.249Z,0.70
2018-12-25T10:31:51.489Z,0.80
2018-12-25T10:34:20.316Z,0.80
2018-12-25T10:36:49.226Z,0.90
2018-12-25T10:39:18.135Z,0.90
2018-12-25T10:41:47.316Z,0.90
2018-12-25T10:44:16.997Z,1.00
2018-12-25T10:46:45.926Z,1.00
2018-12-25T10:49:14.852Z,0.90
2018-12-25T10:51:43.996Z,0.90
2018-12-25T10:54:12.792Z,0.80
2018-12-25T10:56:41.842Z,0.80
2018-12-25T10:59:33.736Z,0.80
2018-12-25T11:01:41.931Z,0.80
2018-12-25T11:04:12.511Z,0.70
2018-12-25T11:06:41.471Z,0.60
2018-12-25T11:09:10.335Z,0.50
2018-12-25T11:11:39.563Z,0.50
2018-12-25T11:14:08.369Z,0.40
2018-12-25T11:16:37.243Z,0.50
2018-12-25T11:19:06.136Z,0.50
2018-12-25T11:21:35.000Z,0.40
2018-12-25T11:24:03.880Z,0.40
2018-12-25T11:26:32.796Z,0.50
2018-12-25T11:29:01.668Z,0.50
2018-12-25T11:31:30.508Z,0.60
2018-12-25T11:33:59.844Z,0.60
2018-12-25T11:36:28.746Z,0.60
2018-12-25T11:38:57.580Z,0.60
2018-12-25T11:41:26.478Z,0.50
2018-12-25T11:43:55.306Z,0.40
2018-12-25T11:46:24.494Z,0.40
2018-12-25T11:48:53.400Z,0.40
2018-12-25T11:51:22.347Z,0.50
2018-12-25T11:53:51.220Z,0.60
2018-12-25T11:56:20.039Z,0.60
2018-12-25T11:58:48.863Z,0.50
2018-12-25T12:01:17.661Z,0.50
2018-12-25T12:03:46.555Z,0.50
2018-12-25T12:06:15.376Z,0.60
2018-12-25T12:08:44.940Z,0.60
2018-12-25T12:11:13.872Z,0.70
2018-12-25T12:13:43.028Z,0.60
2018-12-25T12:16:20.685Z,0.60
2018-12-25T12:18:49.484Z,0.60
2018-12-25T12:21:19.018Z,0.60
2018-12-25T12:23:48.347Z,0.70
2018-12-25T12:26:17.216Z,0.70
2018-12-25T12:28:46.062Z,0.70
2018-12-25T12:31:14.919Z,0.70
2018-12-25T12:33:43.727Z,0.60
2018-12-25T12:36:12.598Z,0.70
2018-12-25T12:38:41.407Z,0.80
2018-12-25T12:41:10.284Z,0.90
2018-12-25T12:43:39.173Z,1.00
2018-12-25T12:46:08.414Z,1.10
2018-12-25T12:48:37.524Z,1.10
2018-12-25T12:51:06.386Z,1.10
2018-12-25T12:53:35.221Z,1.10
2018-12-25T12:56:04.045Z,1.10
2018-12-25T12:58:33.280Z,1.10
2018-12-25T13:01:02.090Z,1.00
2018-12-25T13:03:31.136Z,1.00
2018-12-25T13:05:59.937Z,1.00
2018-12-25T13:08:28.756Z,1.00
2018-12-25T13:11:16.748Z,1.00
2018-12-25T13:13:45.644Z,1.00
2018-12-25T13:16:14.460Z,1.00
2018-12-25T13:18:43.280Z,1.10
2018-12-25T13:21:12.505Z,1.10
2018-12-25T13:23:41.320Z,1.10
2018-12-25T13:26:10.717Z,1.10
2018-12-25T13:28:39.560Z,1.10
2018-12-25T13:31:08.462Z,1.10
2018-12-25T13:33:37.652Z,1.10
2018-12-25T13:36:10.274Z,1.10
2018-12-25T13:38:39.117Z,1.10
2018-12-25T13:41:08.057Z,1.10
2018-12-25T13:43:37.208Z,1.10
2018-12-25T13:46:07.438Z,1.10
2018-12-25T13:48:36.427Z,1.10
2018-12-25T13:51:05.695Z,1.10
2018-12-25T13:53:34.679Z,1.20
2018-12-25T13:56:03.611Z,1.20
2018-12-25T13:58:32.585Z,1.10
2018-12-25T14:01:01.441Z,1.20
2018-12-25T14:03:30.380Z,1.30
2018-12-25T14:05:59.452Z,1.40
2018-12-25T14:08:28.260Z,1.30
2018-12-25T14:10:57.204Z,1.30
2018-12-25T14:13:26.041Z,1.20
2018-12-25T14:15:54.857Z,1.30
2018-12-25T14:18:23.657Z,1.30
2018-12-25T14:20:52.824Z,1.30
2018-12-25T14:23:21.664Z,1.20
2018-12-25T14:25:50.528Z,1.20
2018-12-25T14:28:19.730Z,1.20
2018-12-25T14:30:48.548Z,1.20
2018-12-25T14:33:17.492Z,1.20
2018-12-25T14:35:46.574Z,1.10
2018-12-25T14:38:15.429Z,1.10
2018-12-25T14:40:44.275Z,1.00
2018-12-25T14:43:13.060Z,1.10
2018-12-25T14:45:41.954Z,1.20
2018-12-25T14:48:10.824Z,1.20
2018-12-25T14:50:40.134Z,1.10
2018-12-25T14:53:08.992Z,1.10
2018-12-25T14:55:37.829Z,1.10
2018-12-25T14:58:06.626Z,1.20
2018-12-25T15:00:35.505Z,1.20
2018-12-25T15:03:04.339Z,1.10
2018-12-25T15:05:33.451Z,1.10
2018-12-25T15:08:02.295Z,1.00
2018-12-25T15:10:31.116Z,1.00
2018-12-25T15:12:59.967Z,0.90
2018-12-25T15:15:28.769Z,0.80
2018-12-25T15:17:57.628Z,0.70
2018-12-25T15:20:26.537Z,0.80
2018-12-25T15:22:55.616Z,0.80
2018-12-25T15:25:24.484Z,0.90
2018-12-25T15:27:53.597Z,0.90
2018-12-25T15:30:22.405Z,0.90
2018-12-25T15:32:51.258Z,0.90
2018-12-25T15:35:20.109Z,0.90
2018-12-25T15:37:48.907Z,0.80
2018-12-25T15:40:17.709Z,0.90
2018-12-25T15:42:46.505Z,0.80
2018-12-25T15:45:15.338Z,0.80
2018-12-25T15:47:44.144Z,0.80
2018-12-25T15:50:13.127Z,0.80
2018-12-25T15:52:42.181Z,0.90
2018-12-25T15:55:11.064Z,1.00
2018-12-25T15:57:39.921Z,0.90
2018-12-25T16:00:13.291Z,0.90
2018-12-25T16:02:42.479Z,0.90
2018-12-25T16:05:11.385Z,0.90
2018-12-25T16:07:40.202Z,0.90
2018-12-25T16:10:09.453Z,0.90
2018-12-25T16:12:38.485Z,1.00
2018-12-25T16:15:07.777Z,1.00
2018-12-25T16:17:36.565Z,1.00
2018-12-25T16:20:08.541Z,1.00
2018-12-25T16:22:37.755Z,1.00
2018-12-25T16:25:06.649Z,1.10
2018-12-25T16:27:35.594Z,1.00
2018-12-25T16:30:05.636Z,1.00
2018-12-25T16:32:34.592Z,1.00
2018-12-25T16:35:03.534Z,1.00
2018-12-25T16:37:32.517Z,1.00
2018-12-25T16:40:01.463Z,1.00
2018-12-25T16:42:30.490Z,1.00
2018-12-25T16:44:59.278Z,1.00
2018-12-25T16:47:28.084Z,1.00
2018-12-25T16:49:56.934Z,1.00
2018-12-25T16:52:25.868Z,1.00
2018-12-25T16:54:54.714Z,1.10
2018-12-25T16:57:23.534Z,1.00
2018-12-25T16:59:52.387Z,1.10
2018-12-25T17:02:40.701Z,1.10
2018-12-25T17:05:09.649Z,1.10
2018-12-25T17:07:38.545Z,1.10
2018-12-25T17:10:07.800Z,1.10
2018-12-25T17:12:36.690Z,1.10
2018-12-25T17:15:05.744Z,1.10
2018-12-25T17:17:34.723Z,1.20
2018-12-25T17:20:03.795Z,1.10
2018-12-25T17:22:32.604Z,1.00
2018-12-25T17:25:01.656Z,1.10
2018-12-25T17:27:30.482Z,1.00
2018-12-25T17:29:59.345Z,1.10
2018-12-25T17:32:28.173Z,1.10
2018-12-25T17:34:56.968Z,1.10
2018-12-25T17:37:25.984Z,1.10
2018-12-25T17:39:55.102Z,1.10
2018-12-25T17:42:24.235Z,1.00
2018-12-25T17:44:53.126Z,1.00
2018-12-25T17:47:22.536Z,1.00
2018-12-25T17:49:51.432Z,1.00
2018-12-25T17:52:20.325Z,1.00
2018-12-25T17:54:49.349Z,1.20
2018-12-25T17:57:18.463Z,1.20
2018-12-25T17:59:47.266Z,1.10
2018-12-25T18:02:16.097Z,1.10
2018-12-25T18:04:44.991Z,1.10
2018-12-25T18:07:14.108Z,1.10
2018-12-25T18:09:43.229Z,1.10
2018-12-25T18:12:12.050Z,1.00
2018-12-25T18:14:40.944Z,0.90
2018-12-25T18:17:09.862Z,0.90
2018-12-25T18:19:38.645Z,0.80
2018-12-25T18:22:07.887Z,0.90
2018-12-25T18:24:36.691Z,0.90
2018-12-25T18:27:05.987Z,1.00
2018-12-25T18:29:34.824Z,1.00
2018-12-25T18:32:03.767Z,1.00
2018-12-25T18:34:33.211Z,1.00
2018-12-25T18:37:02.402Z,1.00
2018-12-25T18:39:31.325Z,0.90
2018-12-25T18:42:00.118Z,0.80
2018-12-25T18:44:28.909Z,0.80
2018-12-25T18:46:57.734Z,0.90
2018-12-25T18:49:26.633Z,0.80
2018-12-25T18:51:55.565Z,0.80
2018-12-25T18:54:27.953Z,0.80
2018-12-25T18:56:55.158Z,0.80
2018-12-25T18:59:23.985Z,0.70
2018-12-25T19:01:52.869Z,0.70
2018-12-25T19:04:21.717Z,0.70
2018-12-25T19:06:51.350Z,0.70
2018-12-25T19:09:20.265Z,0.60
2018-12-25T19:11:49.168Z,0.60
2018-12-25T19:14:17.980Z,0.70
2018-12-25T19:16:48.471Z,0.80
2018-12-25T19:19:36.675Z,0.70
2018-12-25T19:22:24.775Z,0.70
2018-12-25T19:25:13.053Z,0.70
2018-12-25T19:28:01.158Z,0.80
2018-12-25T19:30:49.593Z,0.80
2018-12-25T19:33:37.655Z,0.70
2018-12-25T19:36:18.742Z,0.80
2018-12-25T19:38:47.729Z,0.80
2018-12-25T19:41:35.765Z,0.80
2018-12-25T19:44:23.817Z,0.80
2018-12-25T19:46:52.891Z,0.80
2018-12-25T19:49:21.835Z,0.80
2018-12-25T19:52:09.925Z,0.80
2018-12-25T19:54:44.590Z,0.80
2018-12-25T19:57:28.674Z,0.80
2018-12-25T20:00:16.796Z,0.80
2018-12-25T20:03:24.021Z,0.80
2018-12-25T20:06:31.326Z,0.80
2018-12-25T20:09:38.561Z,0.80
2018-12-25T20:12:45.802Z,0.80
2018-12-25T20:15:53.161Z,0.80
2018-12-25T20:19:00.383Z,0.80
2018-12-25T20:22:07.620Z,0.80
2018-12-25T20:25:14.865Z,0.80
2018-12-25T20:28:22.098Z,0.80
2018-12-25T20:31:29.351Z,0.80
2018-12-25T20:34:20.613Z,0.80
2018-12-25T20:37:01.522Z,0.90
2018-12-25T20:39:42.170Z,0.90
2018-12-25T20:42:22.767Z,0.90
2018-12-25T20:45:03.389Z,0.90
2018-12-25T20:48:10.613Z,0.90
2018-12-25T20:51:17.841Z,0.90
2018-12-25T20:54:25.100Z,1.10
2018-12-25T20:57:32.320Z,1.10
2018-12-25T21:00:39.546Z,1.10
2018-12-25T21:03:46.754Z,1.00
2018-12-25T21:06:54.044Z,1.00
2018-12-25T21:10:01.597Z,1.10
2018-12-25T21:16:44.913Z,1.00
2018-12-25T21:19:52.146Z,0.80
2018-12-25T21:22:59.363Z,0.90
2018-12-25T21:26:06.644Z,1.00
2018-12-25T21:28:54.652Z,1.00
2018-12-25T21:31:42.746Z,1.10
2018-12-25T21:34:11.725Z,1.00
2018-12-25T21:37:20.366Z,0.90
2018-12-25T21:40:08.457Z,1.00
2018-12-25T21:42:56.845Z,0.90
2018-12-25T21:45:25.907Z,0.90
2018-12-25T21:51:09.666Z,0.80
2018-12-25T21:53:57.828Z,0.80
2018-12-25T21:56:45.952Z,0.80
2018-12-25T21:59:34.062Z,0.80
2018-12-25T22:02:22.165Z,0.80
2018-12-25T22:05:10.353Z,0.80
2018-12-25T22:07:58.398Z,0.80
2018-12-25T22:10:46.419Z,0.80
2018-12-25T22:13:34.438Z,0.90
2018-12-25T22:16:22.569Z,0.90
2018-12-25T22:19:12.204Z,0.90
2018-12-25T22:22:00.239Z,0.70
2018-12-25T22:24:48.246Z,0.70
2018-12-25T22:27:36.356Z,0.80
2018-12-25T22:30:24.397Z,0.80
2018-12-25T22:33:12.536Z,0.80
2018-12-25T22:36:00.570Z,0.90
2018-12-25T22:38:41.606Z,0.80
2018-12-25T22:41:22.242Z,0.80
2018-12-25T22:44:03.182Z,0.80
2018-12-25T22:46:43.972Z,0.80
2018-12-25T22:49:24.621Z,0.80
2018-12-25T22:52:05.546Z,0.90
2018-12-25T22:54:46.076Z,0.90
2018-12-25T22:57:26.764Z,0.90
2018-12-25T23:00:07.698Z,0.80
2018-12-25T23:02:48.348Z,0.80
2018-12-25T23:05:29.165Z,0.80
2018-12-25T23:08:10.047Z,0.80
2018-12-25T23:10:50.767Z,0.80
2018-12-25T23:13:31.440Z,0.70
2018-12-25T23:16:12.414Z,0.90
2018-12-25T23:18:52.795Z,0.80
2018-12-25T23:21:33.581Z,0.80
2018-12-25T23:24:14.449Z,0.70
2018-12-25T23:26:55.113Z,0.70
2018-12-25T23:29:35.767Z,0.70
2018-12-25T23:32:16.265Z,0.80
2018-12-25T23:34:56.771Z,0.80
2018-12-25T23:37:37.132Z,0.80
2018-12-25T23:40:17.912Z,0.80
2018-12-25T23:42:58.596Z,0.80
2018-12-25T23:45:39.222Z,0.80
2018-12-25T23:48:19.660Z,0.80
2018-12-25T23:50:59.989Z,0.90
2018-12-25T23:53:40.608Z,0.80
2018-12-25T23:56:20.065Z,0.70
2018-12-25T23:59:08.157Z,0.70
